Time;durP1;ratioP1;P1;durP2;ratioP2;P2;SDS_P1;SDS_P2;PMS_P1;PMS_P2;Temp;Humidity;BMP_temperature;BMP_pressure;BME280_temperature;BME280_humidity;BME280_pressure;Samples;Min_cycle;Max_cycle;Signal;HPM_P1;HPM_P2
2022/07/14 00:02:33;;;;;;;7.53;2.13;;;;;;;21.60;56.51;99398.03;5282643;28;20047;-72
2022/07/14 00:05:23;;;;;;;4.45;2.28;;;;;;;21.62;55.69;99383.28;5279493;27;20424;-73
2022/07/14 00:08:14;;;;;;;6.80;2.42;;;;;;;21.54;55.68;99372.69;5284449;28;20046;-72
2022/07/14 00:11:05;;;;;;;6.10;2.30;;;;;;;21.04;57.16;99367.59;5282234;28;20542;-72
2022/07/14 00:13:58;;;;;;;5.70;1.95;;;;;;;21.29;55.77;99365.16;5280743;28;20432;-72
2022/07/14 00:16:48;;;;;;;4.00;2.17;;;;;;;21.32;55.39;99366.59;5279633;28;20455;-72
2022/07/14 00:19:39;;;;;;;5.03;1.67;;;;;;;21.02;56.25;99375.03;5282355;28;20053;-72
2022/07/14 00:22:29;;;;;;;2.58;1.70;;;;;;;20.90;56.99;99373.97;5280623;28;20508;-72
2022/07/14 00:25:19;;;;;;;4.78;2.00;;;;;;;21.13;55.34;99359.31;5284372;28;20180;-73
2022/07/14 00:28:10;;;;;;;4.47;2.10;;;;;;;21.16;56.05;99357.06;5281156;28;20060;-72
2022/07/14 00:31:04;;;;;;;5.63;2.00;;;;;;;20.92;55.80;99362.97;5271357;28;20196;-72
2022/07/14 00:33:55;;;;;;;4.05;1.98;;;;;;;20.50;56.91;99341.41;5278867;28;20051;-72
2022/07/14 00:36:45;;;;;;;4.35;2.15;;;;;;;20.75;57.02;99365.19;5277745;28;20144;-73
2022/07/14 00:39:54;;;;;;;8.82;2.70;;;;;;;20.69;58.39;99369.50;5285954;27;20051;-72
2022/07/14 00:42:47;;;;;;;4.85;2.20;;;;;;;20.84;57.42;99361.28;5280852;28;20546;-73
2022/07/14 00:45:38;;;;;;;4.70;2.10;;;;;;;20.90;55.83;99365.06;5276792;28;20051;-71
2022/07/14 00:48:28;;;;;;;5.32;1.92;;;;;;;20.60;56.10;99350.00;5283643;28;20047;-72
2022/07/14 00:51:18;;;;;;;2.47;1.67;;;;;;;20.59;56.37;99359.09;5264784;28;20699;-71
2022/07/14 00:54:09;;;;;;;7.60;2.63;;;;;;;20.45;57.65;99361.88;5269653;28;20094;-72
2022/07/14 00:56:59;;;;;;;9.48;2.25;;;;;;;20.38;58.63;99372.63;5263100;28;20051;-72
2022/07/14 00:59:49;;;;;;;5.00;2.00;;;;;;;20.37;58.91;99362.91;5281948;28;20052;-73
2022/07/14 01:02:42;;;;;;;6.18;2.25;;;;;;;20.48;58.01;99362.31;5280628;28;20144;-72
2022/07/14 01:05:33;;;;;;;7.28;2.05;;;;;;;20.53;56.79;99354.53;5255301;28;20070;-72
2022/07/14 01:08:24;;;;;;;8.00;3.47;;;;;;;20.24;57.41;99355.56;5280125;28;20513;-72
2022/07/14 01:11:14;;;;;;;7.13;2.08;;;;;;;19.94;58.54;99350.38;5284697;28;20492;-71
2022/07/14 01:14:04;;;;;;;5.47;2.10;;;;;;;20.05;58.71;99358.94;5279776;28;20497;-72
2022/07/14 01:16:56;;;;;;;7.65;2.05;;;;;;;19.99;58.54;99357.84;5278567;28;20052;-72
2022/07/14 01:19:48;;;;;;;4.40;2.10;;;;;;;20.06;57.74;99358.72;5262323;28;20050;-72
2022/07/14 01:22:39;;;;;;;6.07;2.10;;;;;;;19.79;58.08;99351.50;5266621;28;20048;-72
2022/07/14 01:25:29;;;;;;;5.43;1.90;;;;;;;19.88;58.18;99353.03;5283856;28;20071;-72
2022/07/14 01:28:19;;;;;;;3.20;1.70;;;;;;;19.59;59.22;99362.06;5280696;28;20058;-72
2022/07/14 01:31:11;;;;;;;2.42;1.83;;;;;;;19.46;58.52;99355.50;5283781;28;20508;-72
2022/07/14 01:34:01;;;;;;;3.67;1.85;;;;;;;19.47;58.84;99359.06;5271892;28;20050;-73
2022/07/14 01:36:52;;;;;;;2.08;1.73;;;;;;;19.38;59.50;99352.97;5261521;28;20047;-72
2022/07/14 01:39:42;;;;;;;7.32;1.92;;;;;;;19.42;59.09;99354.25;5273304;28;20043;-71
2022/07/14 01:42:32;;;;;;;3.03;2.10;;;;;;;19.42;59.06;99353.41;5264574;28;20051;-72
2022/07/14 01:45:23;;;;;;;6.93;1.85;;;;;;;19.33;58.70;99357.25;5272537;28;20428;-72
2022/07/14 01:48:13;;;;;;;5.07;2.13;;;;;;;19.13;59.21;99348.97;5286842;28;20047;-71
2022/07/14 01:51:03;;;;;;;4.57;1.70;;;;;;;18.99;59.22;99351.50;5277014;28;20650;-72
2022/07/14 01:53:56;;;;;;;2.22;1.63;;;;;;;19.07;59.60;99357.78;5262842;28;20044;-71
2022/07/14 01:56:46;;;;;;;2.90;1.73;;;;;;;18.96;60.61;99357.25;5282149;28;20052;-72
2022/07/14 01:59:37;;;;;;;9.63;2.30;;;;;;;19.47;61.64;99351.81;5263301;28;20036;-71
2022/07/14 02:02:30;;;;;;;3.13;2.10;;;;;;;19.32;60.78;99344.84;5276485;28;20056;-72
2022/07/14 02:05:23;;;;;;;4.47;1.95;;;;;;;19.25;59.96;99342.91;5267958;28;20757;-71
2022/07/14 02:08:13;;;;;;;5.70;1.70;;;;;;;19.00;60.81;99346.97;5280971;28;20481;-72
2022/07/14 02:14:14;;;;;;;3.17;1.95;;;;;;;18.89;60.56;99342.94;5263998;28;20126;-71
2022/07/14 02:17:05;;;;;;;3.80;1.70;;;;;;;18.88;61.18;99335.91;5266311;28;20437;-72
2022/07/14 02:19:55;;;;;;;3.00;1.90;;;;;;;18.75;61.15;99333.88;5263532;28;20086;-72
2022/07/14 02:22:45;;;;;;;3.75;2.03;;;;;;;18.80;60.73;99338.69;5257813;28;20149;-72
2022/07/14 02:25:36;;;;;;;2.47;1.60;;;;;;;18.67;61.05;99335.78;5281760;28;20062;-71
2022/07/14 02:28:27;;;;;;;3.90;2.28;;;;;;;18.65;61.24;99322.56;5261938;28;20105;-72
2022/07/14 02:31:17;;;;;;;2.13;1.85;;;;;;;18.59;60.31;99328.69;5265311;28;20116;-74
2022/07/14 02:34:07;;;;;;;4.03;1.95;;;;;;;18.53;60.23;99338.31;5265710;28;20063;-72
2022/07/14 02:36:57;;;;;;;4.57;2.40;;;;;;;18.45;62.10;99332.22;5274981;28;20117;-71
2022/07/14 02:39:48;;;;;;;3.90;2.13;;;;;;;18.51;63.00;99343.06;5259979;28;20066;-71
2022/07/14 02:42:38;;;;;;;7.05;1.85;;;;;;;18.54;63.67;99331.09;5263545;28;20124;-72
2022/07/14 02:45:29;;;;;;;3.67;2.30;;;;;;;18.69;61.83;99339.13;5275325;28;20493;-72
2022/07/14 02:48:19;;;;;;;3.55;2.10;;;;;;;18.56;62.37;99342.47;5283703;28;20039;-72
2022/07/14 02:51:10;;;;;;;4.82;2.28;;;;;;;18.50;62.68;99329.81;5263892;28;20184;-72
2022/07/14 02:54:00;;;;;;;6.50;2.20;;;;;;;18.40;63.02;99331.94;5264756;28;20177;-74
2022/07/14 02:56:52;;;;;;;5.18;2.15;;;;;;;18.40;62.97;99321.19;5262505;28;20569;-72
2022/07/14 02:59:43;;;;;;;6.43;2.03;;;;;;;18.41;62.85;99331.78;5241087;28;20125;-73
2022/07/14 03:02:32;;;;;;;4.35;1.90;;;;;;;18.40;62.27;99326.56;5282464;28;20077;-73
2022/07/14 03:05:23;;;;;;;6.10;2.10;;;;;;;18.20;62.36;99324.44;5290683;28;20058;-72
2022/07/14 03:08:14;;;;;;;14.60;2.28;;;;;;;17.89;63.80;99326.47;5267696;28;20044;-71
2022/07/14 03:11:04;;;;;;;2.75;1.90;;;;;;;18.07;62.50;99318.88;5266388;28;20050;-71
2022/07/14 03:13:57;;;;;;;4.50;2.22;;;;;;;17.96;63.21;99313.97;5261885;28;20562;-72
2022/07/14 03:16:47;;;;;;;4.63;1.90;;;;;;;17.68;62.58;99311.03;5264731;28;20578;-72
2022/07/14 03:19:38;;;;;;;8.50;2.20;;;;;;;17.70;63.33;99330.47;5278277;28;20040;-72
2022/07/14 03:22:28;;;;;;;6.95;1.85;;;;;;;17.82;63.74;99323.69;5261223;28;20516;-71
2022/07/14 03:25:22;;;;;;;2.22;2.03;;;;;;;17.91;63.78;99319.88;5294444;28;20071;-71
2022/07/14 03:28:13;;;;;;;6.70;3.35;;;;;;;17.73;64.06;99324.72;5277489;28;20058;-73
2022/07/14 03:31:04;;;;;;;4.70;1.92;;;;;;;17.49;64.43;99317.75;5268701;28;20421;-72
2022/07/14 03:33:56;;;;;;;8.32;1.83;;;;;;;17.51;64.35;99321.88;5250050;28;20055;-72
2022/07/14 03:36:47;;;;;;;11.63;2.42;;;;;;;17.58;64.21;99322.84;5263478;28;20101;-72
2022/07/14 03:39:46;;;;;;;2.83;1.73;;;;;;;17.74;64.23;99321.03;5263817;28;20059;-71
2022/07/14 03:42:36;;;;;;;5.80;2.47;;;;;;;17.55;65.16;99325.06;5273577;27;20046;-72
2022/07/14 03:45:27;;;;;;;4.03;2.30;;;;;;;17.59;65.12;99326.38;5269868;28;20063;-73
2022/07/14 03:48:19;;;;;;;4.85;2.00;;;;;;;17.37;65.75;99307.44;5284527;27;20054;-72
2022/07/14 03:51:13;;;;;;;5.03;2.28;;;;;;;17.41;65.49;99309.75;5269763;27;20113;-72
2022/07/14 03:54:04;;;;;;;5.30;2.17;;;;;;;17.54;64.49;99328.75;5274876;27;20043;-72
2022/07/14 03:56:55;;;;;;;5.35;2.00;;;;;;;17.60;66.14;99336.06;5272925;28;20085;-73
2022/07/14 03:59:46;;;;;;;5.40;2.20;;;;;;;17.76;65.07;99343.16;5257047;28;20050;-73
2022/07/14 04:02:38;;;;;;;4.10;2.00;;;;;;;17.74;63.87;99351.34;5268785;28;20116;-73
2022/07/14 04:05:37;;;;;;;13.32;2.72;;;;;;;17.99;65.79;99356.53;5272483;28;20075;-74
2022/07/14 04:08:31;;;;;;;4.72;2.13;;;;;;;17.85;66.46;99336.72;5268295;28;20044;-72
2022/07/14 04:11:24;;;;;;;4.55;2.28;;;;;;;17.87;64.77;99323.13;5276983;28;20093;-72
2022/07/14 04:14:16;;;;;;;4.00;2.20;;;;;;;17.92;65.79;99351.06;5270139;28;20048;-72
2022/07/14 04:17:06;;;;;;;4.57;2.05;;;;;;;17.97;64.94;99350.50;5266020;27;20044;-73
2022/07/14 04:19:57;;;;;;;8.65;2.75;;;;;;;17.89;67.00;99350.59;5266647;28;20043;-72
2022/07/14 04:22:49;;;;;;;5.72;2.83;;;;;;;18.15;65.88;99361.75;5263673;28;20112;-73
2022/07/14 04:25:40;;;;;;;8.15;2.70;;;;;;;18.01;66.70;99357.19;5267949;27;20570;-76
2022/07/14 04:28:30;;;;;;;4.43;2.38;;;;;;;18.02;65.02;99359.69;5289018;27;20066;-74
2022/07/14 04:31:20;;;;;;;6.95;2.45;;;;;;;18.04;64.75;99362.19;5280907;27;20062;-72
2022/07/14 04:34:10;;;;;;;7.53;2.45;;;;;;;17.96;66.20;99363.09;5269244;28;20505;-73
2022/07/14 04:37:01;;;;;;;6.07;2.70;;;;;;;17.98;65.37;99344.97;5265320;28;20428;-72
2022/07/14 04:39:51;;;;;;;7.38;2.70;;;;;;;18.18;65.55;99356.03;5282816;27;20044;-72
2022/07/14 04:42:42;;;;;;;6.20;2.30;;;;;;;18.10;66.15;99355.25;5273391;28;20055;-73
2022/07/14 04:45:32;;;;;;;5.53;2.63;;;;;;;18.15;66.22;99348.34;5294297;27;20132;-72
2022/07/14 04:48:24;;;;;;;7.65;2.70;;;;;;;18.25;66.49;99354.25;5270740;28;20043;-72
2022/07/14 04:54:24;;;;;;;10.20;3.05;;;;;;;18.29;65.43;99342.13;5269605;27;20075;-70
2022/07/14 04:57:32;;;;;;;6.28;2.85;;;;;;;18.44;64.31;99349.34;5273375;28;20051;-70
2022/07/14 05:00:24;;;;;;;6.50;2.95;;;;;;;18.58;64.36;99351.19;5263546;28;20493;-71
2022/07/14 05:03:16;;;;;;;6.18;2.85;;;;;;;18.48;64.52;99346.13;5274326;27;20054;-71
2022/07/14 05:06:06;;;;;;;9.35;2.78;;;;;;;18.63;64.52;99351.44;5270947;28;20043;-72
2022/07/14 05:08:57;;;;;;;4.60;2.80;;;;;;;18.80;64.10;99354.78;5270886;28;20039;-71
2022/07/14 05:11:49;;;;;;;5.40;2.95;;;;;;;18.97;63.56;99344.66;5265037;28;20681;-71
2022/07/14 05:14:40;;;;;;;6.78;3.20;;;;;;;19.06;63.37;99353.44;5266253;28;20232;-72
2022/07/14 05:17:30;;;;;;;6.13;2.90;;;;;;;19.18;63.22;99360.84;5282129;27;20062;-73
2022/07/14 05:20:23;;;;;;;13.03;3.87;;;;;;;19.27;64.43;99360.69;5268484;28;20560;-70
2022/07/14 05:23:14;;;;;;;3.88;3.00;;;;;;;19.35;62.95;99352.53;5276324;28;20501;-71
2022/07/14 05:26:12;;;;;;;7.40;2.85;;;;;;;19.60;61.44;99353.81;5270992;27;20648;-70
2022/07/14 05:29:02;;;;;;;3.80;2.97;;;;;;;19.62;62.03;99348.22;5286480;27;20047;-71
2022/07/14 05:31:53;;;;;;;5.20;2.60;;;;;;;19.72;61.46;99324.53;5279319;28;20055;-70
2022/07/14 05:34:51;;;;;;;5.30;3.10;;;;;;;19.75;63.04;99336.78;5265994;27;20052;-71
2022/07/14 05:37:42;;;;;;;2.92;2.35;;;;;;;19.77;61.85;99322.09;5291579;27;20542;-70
2022/07/14 05:40:33;;;;;;;3.70;2.45;;;;;;;19.95;61.04;99335.06;5234560;28;20056;-70
2022/07/14 05:43:23;;;;;;;6.05;2.35;;;;;;;20.01;60.96;99328.91;5242645;28;20693;-71
2022/07/14 05:46:18;;;;;;;3.53;2.50;;;;;;;20.25;59.26;99332.16;5239192;28;20413;-70
2022/07/14 05:49:11;;;;;;;4.22;2.63;;;;;;;20.30;60.00;99335.09;5247188;28;20056;-70
2022/07/14 05:52:02;;;;;;;3.38;2.33;;;;;;;20.35;58.53;99320.00;5249576;28;20055;-71
2022/07/14 05:54:57;;;;;;;3.55;2.28;;;;;;;20.54;58.70;99325.72;5248390;27;20185;-71
2022/07/14 05:57:48;;;;;;;4.50;2.47;;;;;;;20.74;58.54;99328.50;5249572;28;20149;-71
2022/07/14 06:00:39;;;;;;;8.70;2.80;;;;;;;20.98;58.77;99333.34;5266149;28;20116;-71
2022/07/14 06:03:30;;;;;;;6.22;2.50;;;;;;;21.19;58.38;99324.28;5246564;28;20055;-70
2022/07/14 06:06:22;;;;;;;4.07;2.60;;;;;;;21.48;56.30;99320.38;5239899;28;20058;-70
2022/07/14 06:09:13;;;;;;;5.93;2.67;;;;;;;21.67;57.57;99317.91;5240416;28;20056;-70
2022/07/14 06:12:08;;;;;;;5.18;2.60;;;;;;;21.88;56.98;99315.00;5253464;27;20327;-70
2022/07/14 06:15:02;;;;;;;7.57;2.83;;;;;;;22.32;54.15;99310.81;5242275;28;20192;-70
2022/07/14 06:17:52;;;;;;;4.30;2.53;;;;;;;22.52;53.11;99316.16;5240571;28;20700;-71
2022/07/14 06:20:44;;;;;;;7.78;2.70;;;;;;;22.79;52.20;99314.16;5239188;28;20500;-70
2022/07/14 06:23:34;;;;;;;8.07;2.70;;;;;;;22.87;51.83;99313.91;5235408;28;20059;-71
2022/07/14 06:26:25;;;;;;;4.10;2.05;;;;;;;23.02;51.52;99315.53;5256668;28;20077;-70
2022/07/14 06:29:16;;;;;;;7.10;2.85;;;;;;;22.99;52.12;99308.69;5246773;28;20129;-70
2022/07/14 06:32:07;;;;;;;6.90;2.78;;;;;;;23.18;52.51;99310.44;5251135;28;20465;-71
2022/07/14 06:34:58;;;;;;;5.22;2.53;;;;;;;23.34;50.47;99308.22;5245735;28;20051;-72
2022/07/14 06:37:52;;;;;;;4.80;2.70;;;;;;;23.67;50.04;99302.56;5253986;28;20528;-72
2022/07/14 06:40:42;;;;;;;7.20;3.10;;;;;;;24.33;47.77;99301.94;5239516;28;20047;-69
2022/07/14 06:43:32;;;;;;;7.50;2.20;;;;;;;24.34;49.77;99303.63;5240497;28;20869;-71
2022/07/14 06:46:31;;;;;;;4.88;1.83;;;;;;;24.35;49.30;99291.72;5237259;28;20505;-69
2022/07/14 06:49:22;;;;;;;4.57;1.98;;;;;;;24.77;48.01;99297.28;5242767;28;20415;-71
2022/07/14 06:52:12;;;;;;;4.50;2.30;;;;;;;24.84;48.62;99295.31;5231743;28;21396;-70
2022/07/14 06:55:04;;;;;;;6.95;2.40;;;;;;;25.21;46.69;99291.69;5255674;28;20063;-70
2022/07/14 06:57:53;;;;;;;6.45;2.38;;;;;;;25.42;46.55;99287.59;5258938;27;22040;-71
2022/07/14 07:00:50;;;;;;;6.70;1.90;;;;;;;25.54;45.64;99269.47;5257736;28;20109;-71
2022/07/14 07:03:41;;;;;;;13.90;2.40;;;;;;;25.87;46.61;99279.78;5262103;28;20234;-71
2022/07/14 07:06:43;;;;;;;4.10;1.70;;;;;;;26.81;42.53;99262.44;5258927;28;20052;-71
2022/07/14 07:09:33;;;;;;;6.82;1.77;;;;;;;27.51;42.13;99267.53;5259278;28;20062;-71
2022/07/14 07:12:24;;;;;;;7.97;2.00;;;;;;;28.23;40.24;99268.59;5262639;28;20052;-71
2022/07/14 07:15:14;;;;;;;6.53;2.10;;;;;;;28.18;39.39;99274.84;5261669;27;20051;-71
2022/07/14 07:18:06;;;;;;;2.85;1.92;;;;;;;28.27;41.03;99272.47;5241632;28;20204;-71
2022/07/14 07:20:57;;;;;;;4.53;2.15;;;;;;;28.07;40.83;99278.47;5259977;28;20052;-70
2022/07/14 07:23:48;;;;;;;6.10;2.20;;;;;;;28.09;40.34;99262.72;5245583;28;20050;-70
2022/07/14 07:26:40;;;;;;;6.78;2.17;;;;;;;28.85;38.26;99279.22;5259494;28;21785;-70
2022/07/14 07:29:30;;;;;;;5.68;2.13;;;;;;;29.64;37.42;99267.72;5266235;28;20108;-71
2022/07/14 07:32:22;;;;;;;5.82;2.28;;;;;;;30.71;35.65;99259.25;5255437;28;20518;-71
2022/07/14 07:35:12;;;;;;;3.22;1.80;;;;;;;31.45;35.75;99263.50;5248666;28;20152;-71
2022/07/14 07:38:02;;;;;;;5.20;1.85;;;;;;;31.91;35.44;99254.44;5262769;28;20051;-70
2022/07/14 07:40:53;;;;;;;6.25;1.52;;;;;;;32.06;33.73;99257.16;5253273;28;20059;-70
2022/07/14 07:43:44;;;;;;;3.85;1.75;;;;;;;32.55;32.92;99242.72;5258056;28;20062;-71
2022/07/14 07:46:34;;;;;;;4.60;1.90;;;;;;;33.07;31.18;99248.75;5244011;28;20126;-70
2022/07/14 07:49:24;;;;;;;5.53;2.00;;;;;;;33.52;30.90;99253.09;5259425;28;20108;-71
2022/07/14 07:52:14;;;;;;;3.45;1.75;;;;;;;33.96;30.45;99235.59;5261168;28;20192;-71
2022/07/14 07:55:10;;;;;;;13.55;1.90;;;;;;;33.63;32.30;99240.06;5258590;28;20683;-71
2022/07/14 07:58:14;;;;;;;3.05;1.80;;;;;;;33.44;33.93;99237.16;5265880;27;20059;-71
2022/07/14 08:01:04;;;;;;;7.85;1.95;;;;;;;33.20;32.34;99232.41;5263078;28;20051;-70
2022/07/14 08:03:55;;;;;;;7.97;2.30;;;;;;;33.43;31.15;99227.28;5250214;28;20052;-71
2022/07/14 08:06:46;;;;;;;6.63;2.03;;;;;;;33.70;31.35;99221.28;5270571;28;20197;-71
2022/07/14 08:09:36;;;;;;;7.65;2.15;;;;;;;33.25;32.23;99217.03;5243036;28;20540;-71
2022/07/14 08:12:26;;;;;;;4.15;1.70;;;;;;;33.79;30.87;99199.47;5255614;28;20066;-70
2022/07/14 08:15:17;;;;;;;8.85;1.80;;;;;;;33.94;29.89;99212.22;5253509;28;20544;-71
2022/07/14 08:18:08;;;;;;;17.85;2.42;;;;;;;33.88;30.20;99203.22;5253105;28;20842;-71
2022/07/14 08:20:58;;;;;;;4.80;1.50;;;;;;;33.83;32.56;99195.03;5258925;28;20059;-70
2022/07/14 08:23:48;;;;;;;5.88;1.42;;;;;;;33.90;30.44;99195.47;5262441;27;20047;-71
2022/07/14 08:26:40;;;;;;;3.35;1.83;;;;;;;34.66;28.85;99187.41;5266679;27;20060;-71
2022/07/14 08:29:30;;;;;;;3.95;1.40;;;;;;;35.14;26.93;99190.00;5264915;28;20086;-71
2022/07/14 08:32:47;;;;;;;3.15;1.67;;;;;;;35.63;29.46;99191.34;5262149;28;20517;-71
2022/07/14 08:35:37;;;;;;;6.22;1.38;;;;;;;36.15;27.75;99186.47;5264180;28;20109;-71
2022/07/14 08:38:28;;;;;;;10.52;1.85;;;;;;;35.50;27.03;99177.22;5255743;28;20165;-71
2022/07/14 08:41:18;;;;;;;4.65;1.70;;;;;;;36.02;25.50;99171.56;5254408;28;20139;-71
2022/07/14 08:44:08;;;;;;;10.13;1.83;;;;;;;36.57;26.16;99173.47;5254981;28;20671;-71
2022/07/14 08:46:59;;;;;;;8.57;1.73;;;;;;;36.83;26.56;99176.44;5254000;28;20169;-71
2022/07/14 08:49:50;;;;;;;3.47;1.50;;;;;;;37.17;25.20;99164.03;5260768;28;20679;-71
2022/07/14 08:52:55;;;;;;;1.95;1.55;;;;;;;37.36;24.78;99162.66;5262077;28;20755;-71
2022/07/14 08:55:46;;;;;;;7.70;1.80;;;;;;;37.22;23.38;99161.94;5263424;28;20707;-71
2022/07/14 08:58:36;;;;;;;4.85;1.80;;;;;;;36.91;25.95;99148.84;5247520;28;20052;-71
2022/07/14 09:01:26;;;;;;;7.18;1.55;;;;;;;36.39;24.50;99165.00;5261858;28;20063;-72
2022/07/14 09:04:17;;;;;;;2.90;1.67;;;;;;;36.62;24.69;99140.16;5252206;28;20050;-69
2022/07/14 09:07:07;;;;;;;4.57;1.85;;;;;;;37.58;23.17;99150.78;5256958;28;20172;-69
2022/07/14 09:10:01;;;;;;;4.95;2.05;;;;;;;37.88;24.21;99130.81;5256116;28;20451;-69
2022/07/14 09:13:12;;;;;;;5.20;1.48;;;;;;;37.86;22.36;99142.22;5241930;28;20055;-72
2022/07/14 09:16:20;;;;;;;5.32;1.90;;;;;;;37.70;24.23;99143.81;5254227;28;20108;-72
2022/07/14 09:19:15;;;;;;;9.43;1.33;;;;;;;37.89;23.06;99127.75;5255266;28;20044;-70
2022/07/14 09:22:05;;;;;;;4.90;1.65;;;;;;;37.50;22.84;99121.09;5256427;27;20062;-70
2022/07/14 09:24:56;;;;;;;8.15;1.67;;;;;;;36.36;24.64;99128.88;5251843;28;20078;-69
2022/07/14 09:27:47;;;;;;;3.60;1.25;;;;;;;37.34;22.85;99119.88;5260159;28;20202;-70
2022/07/14 09:30:37;;;;;;;6.22;1.60;;;;;;;37.81;21.93;99121.03;5260818;28;20111;-70
2022/07/14 09:33:27;;;;;;;5.40;1.33;;;;;;;38.06;23.13;99113.97;5262906;28;20136;-70
2022/07/14 09:36:28;;;;;;;4.72;1.52;;;;;;;37.54;21.14;99112.97;5265850;28;20442;-70
2022/07/14 09:39:20;;;;;;;7.45;1.85;;;;;;;38.04;21.58;99115.44;5263491;28;20051;-70
2022/07/14 09:42:10;;;;;;;4.53;1.40;;;;;;;38.03;20.02;99106.31;5265073;28;20433;-71
2022/07/14 09:45:10;;;;;;;5.55;1.23;;;;;;;37.80;21.28;99097.28;5256735;28;20051;-70
2022/07/14 09:48:11;;;;;;;5.07;1.05;;;;;;;37.00;20.86;99106.69;5250382;28;20093;-71
2022/07/14 09:51:01;;;;;;;1.58;1.02;;;;;;;38.22;20.91;99103.25;5252247;28;20494;-70
2022/07/14 09:53:59;;;;;;;4.47;1.08;;;;;;;38.12;20.93;99095.25;5254584;28;20067;-71
2022/07/14 09:56:50;;;;;;;2.40;1.00;;;;;;;37.84;19.43;99103.78;5260138;27;20051;-70
2022/07/14 09:59:48;;;;;;;3.80;1.00;;;;;;;38.08;21.05;99097.03;5245018;28;20807;-70
2022/07/14 10:02:40;;;;;;;4.07;1.10;;;;;;;38.99;19.76;99095.25;5260286;28;20113;-70
2022/07/14 10:05:33;;;;;;;5.13;0.93;;;;;;;38.96;21.39;99085.63;5265573;28;20626;-70
2022/07/14 10:08:33;;;;;;;2.03;1.15;;;;;;;38.83;20.58;99086.66;5267681;28;20051;-70
2022/07/14 10:11:23;;;;;;;2.92;1.15;;;;;;;38.45;20.31;99086.53;5259194;28;20489;-71
2022/07/14 10:14:15;;;;;;;1.35;0.80;;;;;;;37.45;21.80;99088.03;5257637;28;20051;-70
2022/07/14 10:17:06;;;;;;;3.63;1.30;;;;;;;39.09;20.51;99075.50;5249492;28;20204;-70
2022/07/14 10:19:57;;;;;;;6.50;1.08;;;;;;;39.39;18.37;99078.34;5254889;28;20059;-71
2022/07/14 10:22:50;;;;;;;11.10;1.42;;;;;;;38.21;18.63;99062.03;5252149;27;20688;-71
2022/07/14 10:25:41;;;;;;;9.00;1.20;;;;;;;37.87;18.92;99063.59;5256057;28;20649;-71
2022/07/14 10:28:32;;;;;;;12.38;1.30;;;;;;;38.43;20.67;99064.66;5259264;28;20630;-71
2022/07/14 10:31:44;;;;;;;5.75;1.10;;;;;;;37.73;21.87;99057.41;5258343;28;20887;-72
2022/07/14 10:34:41;;;;;;;5.10;1.35;;;;;;;38.11;20.62;99040.19;5261994;27;20137;-72
2022/07/14 10:37:40;;;;;;;6.35;1.58;;;;;;;38.66;19.54;99043.13;5249139;28;20066;-72
2022/07/14 10:41:03;;;;;;;2.60;1.20;;;;;;;38.51;21.13;99041.69;5259669;28;20249;-71
2022/07/14 10:44:17;;;;;;;7.60;1.30;;;;;;;38.67;21.25;99047.50;5260375;27;20052;-70
2022/07/14 10:47:10;;;;;;;8.65;1.58;;;;;;;38.11;19.88;99027.16;5257763;27;20207;-69
2022/07/14 10:50:11;;;;;;;5.28;1.17;;;;;;;36.99;21.07;99033.16;5265316;27;20051;-73
2022/07/14 10:53:04;;;;;;;1.42;1.23;;;;;;;38.20;21.51;99014.16;5263204;27;20051;-70
2022/07/14 10:55:54;;;;;;;4.72;1.20;;;;;;;37.91;19.74;99013.97;5212738;28;20171;-71
2022/07/14 10:58:45;;;;;;;6.20;1.30;;;;;;;38.16;19.62;99015.13;5216664;28;20044;-72
2022/07/14 11:01:36;;;;;;;5.00;1.02;;;;;;;38.00;21.09;99006.50;5215725;28;20044;-68
2022/07/14 11:05:06;;;;;;;1.88;1.20;;;;;;;37.29;21.63;99012.19;5229586;28;20064;-71
2022/07/14 11:08:02;;;;;;;5.85;1.48;;;;;;;37.28;22.29;99008.56;5221881;28;20861;-70
2022/07/14 11:10:54;;;;;;;2.33;1.02;;;;;;;36.63;22.96;99023.84;5228898;28;20040;-70
2022/07/14 11:13:57;;;;;;;1.67;1.40;;;;;;;36.54;21.29;99005.59;5234022;28;20451;-71
2022/07/14 11:16:47;;;;;;;3.75;1.30;;;;;;;37.15;21.08;99009.50;5227022;28;20056;-69
2022/07/14 11:19:38;;;;;;;4.53;1.80;;;;;;;37.02;22.57;98996.59;5223825;28;20071;-69
2022/07/14 11:22:28;;;;;;;4.40;1.10;;;;;;;37.54;21.80;98982.97;5227287;28;20045;-72
2022/07/14 11:25:27;;;;;;;3.92;1.50;;;;;;;37.34;21.76;98993.47;5231294;28;20044;-72
2022/07/14 11:28:37;;;;;;;5.90;1.92;;;;;;;37.54;21.08;98983.78;5224759;28;20099;-70
2022/07/14 11:31:27;;;;;;;11.63;1.35;;;;;;;37.05;22.32;98984.91;5230550;28;20056;-70
2022/07/14 11:37:59;;;;;;;4.85;1.52;;;;;;;35.77;22.91;98985.31;5223711;28;20514;-71
2022/07/14 11:40:51;;;;;;;3.88;1.73;;;;;;;36.03;22.24;98979.19;5226905;28;20045;-71
2022/07/14 11:43:44;;;;;;;5.93;1.30;;;;;;;35.61;23.04;98981.25;5212486;28;20049;-71
2022/07/14 11:46:34;;;;;;;1.63;1.52;;;;;;;36.12;23.63;98980.91;5212382;28;20517;-71
2022/07/14 11:49:25;;;;;;;2.75;1.30;;;;;;;36.22;22.43;98963.28;5220449;28;20430;-71
2022/07/14 11:52:23;;;;;;;13.23;1.55;;;;;;;35.74;23.69;98972.13;5223876;28;20740;-70
2022/07/14 11:55:13;;;;;;;4.18;1.48;;;;;;;36.31;23.41;98969.69;5228109;28;20094;-71
2022/07/14 11:58:04;;;;;;;2.47;1.63;;;;;;;36.61;23.40;98953.47;5227572;28;20056;-71
2022/07/14 12:00:59;;;;;;;6.88;1.60;;;;;;;35.51;22.58;98954.69;5233125;28;20111;-71
2022/07/14 12:03:49;;;;;;;4.03;1.85;;;;;;;35.26;22.46;98956.84;5218664;28;20109;-71
2022/07/14 12:06:43;;;;;;;1.98;1.30;;;;;;;35.20;22.39;98955.34;5225223;28;20055;-71
2022/07/14 12:09:35;;;;;;;6.20;1.35;;;;;;;34.25;23.12;98945.78;5214887;28;20150;-71
2022/07/14 12:12:41;;;;;;;4.93;1.60;;;;;;;34.87;23.74;98949.09;5227128;28;20049;-71
2022/07/14 12:15:32;;;;;;;6.43;1.58;;;;;;;35.19;23.35;98945.41;5223606;28;20190;-71
2022/07/14 12:18:28;;;;;;;3.67;1.30;;;;;;;34.94;23.22;98949.50;5225821;28;20060;-71
2022/07/14 12:21:36;;;;;;;4.95;1.60;;;;;;;34.55;23.39;98920.47;5216677;28;20067;-71
2022/07/14 12:24:27;;;;;;;5.05;1.48;;;;;;;35.15;23.53;98938.09;5220369;28;20055;-71
2022/07/14 12:27:18;;;;;;;6.45;1.35;;;;;;;34.86;22.84;98941.91;5221352;28;20044;-71
2022/07/14 12:30:09;;;;;;;1.85;1.50;;;;;;;34.95;24.10;98934.59;5218624;28;20145;-71
2022/07/14 12:32:59;;;;;;;1.90;1.30;;;;;;;34.34;22.78;98932.97;5217234;28;20058;-71
2022/07/14 12:35:53;;;;;;;5.45;1.58;;;;;;;34.75;23.43;98918.47;5216325;28;20139;-71
2022/07/14 12:38:45;;;;;;;5.07;1.73;;;;;;;34.26;23.64;98934.44;5218233;28;20056;-71
2022/07/14 12:41:38;;;;;;;3.13;1.48;;;;;;;34.52;24.52;98934.03;5221861;28;20075;-71
2022/07/14 12:44:28;;;;;;;4.60;1.70;;;;;;;35.03;24.51;98942.19;5220920;28;20065;-71
2022/07/14 12:47:18;;;;;;;3.35;1.50;;;;;;;34.70;24.14;98935.88;5223457;28;20315;-71
2022/07/14 12:50:21;;;;;;;3.03;1.30;;;;;;;34.08;24.66;98936.13;5223368;28;20064;-71
2022/07/14 12:53:12;;;;;;;3.28;1.60;;;;;;;34.63;23.72;98943.72;5222670;28;20197;-71
2022/07/14 12:56:06;;;;;;;4.72;1.60;;;;;;;34.02;24.55;98934.56;5222469;28;20044;-71
2022/07/14 12:59:00;;;;;;;5.22;1.50;;;;;;;34.32;24.53;98926.94;5227662;28;20514;-71
2022/07/14 13:01:56;;;;;;;1.98;1.50;;;;;;;33.88;25.42;98936.44;5215635;28;20621;-71
2022/07/14 13:05:01;;;;;;;6.70;1.52;;;;;;;33.89;25.23;98927.06;5211259;28;20503;-72
2022/07/14 13:07:51;;;;;;;6.20;1.40;;;;;;;34.11;25.18;98921.78;5214140;28;20067;-72
2022/07/14 13:10:55;;;;;;;2.95;1.35;;;;;;;34.31;24.29;98939.06;5204990;28;20485;-72
2022/07/14 13:13:49;;;;;;;3.75;1.40;;;;;;;33.67;24.21;98928.47;5217899;28;20079;-72
2022/07/14 13:16:44;;;;;;;3.30;1.40;;;;;;;33.95;24.36;98923.09;5218999;28;20670;-72
2022/07/14 13:19:34;;;;;;;2.03;1.38;;;;;;;33.48;25.58;98918.53;5226737;28;20190;-71
2022/07/14 13:22:25;;;;;;;1.52;1.23;;;;;;;33.55;24.92;98932.78;5225974;28;20052;-72
2022/07/14 13:25:16;;;;;;;5.13;1.45;;;;;;;33.53;24.95;98933.06;5225461;28;20064;-72
2022/07/14 13:28:06;;;;;;;3.45;1.40;;;;;;;34.32;24.71;98930.50;5221065;28;20041;-72
2022/07/14 13:30:56;;;;;;;5.47;1.30;;;;;;;34.20;24.20;98930.16;5226393;28;20198;-73
2022/07/14 13:33:48;;;;;;;5.18;1.42;;;;;;;34.88;23.86;98931.44;5210333;28;20113;-72
2022/07/14 13:36:38;;;;;;;3.92;1.30;;;;;;;34.13;23.82;98922.28;5219349;28;20068;-72
2022/07/14 13:39:29;;;;;;;3.42;1.10;;;;;;;34.51;24.10;98918.63;5216576;28;20190;-71
2022/07/14 13:42:19;;;;;;;1.83;1.30;;;;;;;34.36;24.22;98916.94;5216326;28;20506;-71
2022/07/14 13:45:10;;;;;;;2.78;1.40;;;;;;;34.77;23.74;98916.19;5216688;28;20209;-72